Airfield :
LOGIN :

Register | Disclaimer

   EN    FR    IT 

 










Legend :    VFR   Marginal VFR   IFR   Intensive IFR   Very Intensive IFR
Visi :
Ceiling :
>= 8 km
>= 3000ft
5 to 8 km
1000 to 3000 ft
1500m to 5 km
500 to 1000 ft
800 to 1500m
200 to 500 ft
< 800m
< 200 ft
Symbols :   Thunderstorms  Fog  Heavy snow  Heavy precipitations  Wind > 20 kt
SIGMETs :     Misc.  Thunderstorms  Icing  Turbulence  Mountain Waves  Volcanic Ashes







- Airport Elevation : 1504 ft
- IATA code : PNA


LEPP - Noain Pamplona

CURRENT METAR :
  • 160700Z 00000KT 9999 FEW002 08/07 Q1016

EXPIRED METARs :
  • 160630Z 00000KT CAVOK 08/07 Q1015
  • 160600Z 16002KT CAVOK 07/06 Q1015
  • 160530Z VRB02KT CAVOK 08/07 Q1015
  • 160500Z 00000KT CAVOK 08/07 Q1015
  • 160430Z VRB01KT CAVOK 08/07 Q1014

TAF TAF LEPP
Valid from the 16 at 03:00 until the 17 at 03:00 UTC


160200Z 1603/1703 VRB04KT 9999 FEW050 TX22/1614Z TN08/1603Z
PROB40
TEMPO 1603/1608 1500 BCFG
TEMPO 1612/1618 34010KT
TEMPO 1700/1703 1500 BCFG BKN005
No reported NOTAMs for that airfield.



MET'MAP, your aeronautical weather chart ! - Copyright ORBIFLY December 2007 - Disclaimer

ORBIFLY MET'MAP TEAM :

Programming & Development : Alexandra Zaïnal
Concept & Development : Baudouin d'Aumeries
Co-Development & Prog : Marc-Olivier Méhu
Technical & hardware support : Manuel Goepfert

Contact : metmap@orbifly.com




SOURCES & CREDITS :

   NOAA